Flat Rock, Illinois
Current Conditions -  °F | °C
As of 11:35 PM on Tuesday 25 Nov 2014 (Local Time) from KRSV Reporting Station
Clear Clear  
Wind Chill: 27°   Ceiling: Unl
Heat Index: 27°   Visibility: 10mi
Dew Point: 24°   Wind: 3mph
Humidity: 88%   Direction: 60°ENE
Pressure: 30.21"   Gusts: NA
Location:  38.9°N, 87.67°W
Report Text: KRSV 260535Z AUTO 06003KT 10SM CLR M03/M05 A3021 RMK AO2 T10301047
Loading
Personal Weather Stations






























Interactive Weather Map New forecast layout! Learn more

10-Day Weather Forecast

Advertisements
Track Severe Weather on mobile